createdAt,value
2018-08-09T00:00:50.427Z,59.30
2018-08-09T00:03:18.669Z,59.30
2018-08-09T00:05:46.910Z,59.40
2018-08-09T00:08:15.122Z,59.30
2018-08-09T00:10:43.373Z,59.30
2018-08-09T00:13:11.824Z,59.40
2018-08-09T00:15:40.083Z,59.50
2018-08-09T00:18:08.312Z,59.50
2018-08-09T00:20:36.531Z,59.50
2018-08-09T00:23:04.789Z,59.60
2018-08-09T00:25:33.015Z,59.70
2018-08-09T00:28:01.334Z,59.90
2018-08-09T00:30:29.583Z,60.00
2018-08-09T00:32:57.829Z,60.20
2018-08-09T00:35:26.098Z,60.40
2018-08-09T00:37:54.363Z,60.50
2018-08-09T00:40:22.595Z,60.70
2018-08-09T00:42:50.844Z,60.50
2018-08-09T00:45:19.075Z,60.60
2018-08-09T00:47:47.352Z,60.70
2018-08-09T00:50:15.607Z,61.70
2018-08-09T00:52:43.867Z,61.30
2018-08-09T00:55:12.110Z,61.50
2018-08-09T00:57:40.315Z,61.70
2018-08-09T01:00:08.570Z,62.10
2018-08-09T01:02:36.785Z,62.30
2018-08-09T01:05:05.235Z,62.70
2018-08-09T01:07:33.491Z,63.20
2018-08-09T01:10:01.714Z,63.40
2018-08-09T01:12:29.962Z,63.50
2018-08-09T01:14:58.204Z,63.60
2018-08-09T01:17:26.420Z,64.40
2018-08-09T01:19:54.671Z,63.50
2018-08-09T01:22:22.874Z,63.40
2018-08-09T01:24:51.123Z,63.50
2018-08-09T01:27:19.318Z,63.50
2018-08-09T01:29:47.539Z,63.60
2018-08-09T01:32:15.774Z,63.80
2018-08-09T01:34:44.134Z,63.90
2018-08-09T01:37:12.386Z,64.00
2018-08-09T01:39:40.628Z,64.20
2018-08-09T01:42:20.170Z,64.40
2018-08-09T01:44:48.430Z,64.50
2018-08-09T01:47:16.671Z,64.80
2018-08-09T01:49:44.930Z,65.20
2018-08-09T01:52:13.192Z,65.70
2018-08-09T01:54:41.411Z,66.00
2018-08-09T01:57:09.645Z,66.00
2018-08-09T01:59:37.867Z,66.10
2018-08-09T02:02:06.157Z,66.00
2018-08-09T02:04:34.538Z,65.80
2018-08-09T02:07:02.820Z,65.50
2018-08-09T02:09:33.478Z,65.40
2018-08-09T02:12:02.830Z,65.30
2018-08-09T02:14:31.083Z,65.20
2018-08-09T02:16:59.611Z,65.20
2018-08-09T02:19:27.864Z,65.30
2018-08-09T02:21:56.071Z,65.20
2018-08-09T02:24:24.377Z,65.30
2018-08-09T02:26:52.583Z,65.30
2018-08-09T02:29:20.820Z,65.50
2018-08-09T02:31:49.072Z,65.70
2018-08-09T02:34:17.318Z,65.80
2018-08-09T02:36:45.556Z,65.90
2018-08-09T02:39:13.854Z,66.20
2018-08-09T02:41:42.063Z,66.30
2018-08-09T02:44:10.292Z,66.70
2018-08-09T02:46:38.650Z,67.00
2018-08-09T02:49:06.830Z,67.30
2018-08-09T02:51:35.096Z,67.40
2018-08-09T02:54:03.330Z,67.40
2018-08-09T02:56:31.588Z,67.60
2018-08-09T02:58:59.806Z,67.80
2018-08-09T03:01:28.106Z,67.80
2018-08-09T03:03:56.641Z,67.80
2018-08-09T03:06:24.835Z,67.70
2018-08-09T03:08:53.088Z,67.60
2018-08-09T03:11:21.291Z,67.50
2018-08-09T03:13:49.545Z,67.20
2018-08-09T03:16:17.819Z,67.00
2018-08-09T03:18:46.060Z,66.90
2018-08-09T03:21:14.282Z,66.70
2018-08-09T03:23:42.499Z,66.60
2018-08-09T03:26:10.765Z,66.50
2018-08-09T03:28:38.999Z,66.60
2018-08-09T03:31:07.271Z,66.70
2018-08-09T03:33:35.566Z,67.00
2018-08-09T03:36:03.802Z,67.20
2018-08-09T03:38:32.051Z,67.30
2018-08-09T03:41:00.299Z,67.40
2018-08-09T03:43:28.514Z,67.60
2018-08-09T03:45:56.754Z,67.80
2018-08-09T03:48:25.015Z,67.90
2018-08-09T03:50:53.937Z,67.90
2018-08-09T03:53:22.839Z,67.80
2018-08-09T03:55:51.065Z,67.80
2018-08-09T03:58:19.344Z,67.90
2018-08-09T04:00:47.628Z,68.00
2018-08-09T04:03:15.909Z,68.00
2018-08-09T04:05:44.127Z,68.30
2018-08-09T04:08:12.331Z,68.40
2018-08-09T04:10:40.579Z,68.60
2018-08-09T04:13:08.831Z,68.50
2018-08-09T04:15:37.070Z,68.50
2018-08-09T04:18:05.332Z,68.40
2018-08-09T04:20:33.547Z,68.10
2018-08-09T04:23:01.779Z,68.10
2018-08-09T04:25:30.027Z,68.10
2018-08-09T04:27:58.267Z,68.30
2018-08-09T04:30:26.514Z,68.40
2018-08-09T04:32:54.728Z,68.40
2018-08-09T04:35:22.990Z,68.10
2018-08-09T04:37:51.299Z,67.90
2018-08-09T04:40:19.451Z,67.70
2018-08-09T04:42:47.647Z,67.50
2018-08-09T04:45:15.888Z,67.30
2018-08-09T04:47:44.123Z,67.00
2018-08-09T04:50:12.352Z,66.90
2018-08-09T04:52:40.584Z,66.90
2018-08-09T04:55:09.022Z,66.90
2018-08-09T04:57:37.248Z,67.50
2018-08-09T05:00:05.751Z,66.70
2018-08-09T05:02:33.988Z,67.40
2018-08-09T05:05:02.239Z,66.70
2018-08-09T05:07:30.574Z,66.80
2018-08-09T05:10:03.078Z,66.80
2018-08-09T05:12:31.307Z,66.90
2018-08-09T05:15:06.051Z,67.70
2018-08-09T05:17:34.642Z,68.00
2018-08-09T05:20:03.154Z,68.40
2018-08-09T05:22:31.387Z,68.70
2018-08-09T05:24:59.661Z,68.60
2018-08-09T05:27:27.890Z,69.10
2018-08-09T05:29:56.151Z,69.40
2018-08-09T05:32:24.375Z,69.90
2018-08-09T05:34:52.623Z,70.50
2018-08-09T05:37:20.867Z,70.60
2018-08-09T05:39:49.111Z,71.40
2018-08-09T05:42:17.395Z,71.40
2018-08-09T05:44:45.743Z,71.80
2018-08-09T05:47:13.974Z,71.90
2018-08-09T05:49:42.201Z,72.00
2018-08-09T05:52:10.440Z,72.30
2018-08-09T05:54:38.742Z,72.60
2018-08-09T05:57:06.972Z,72.80
2018-08-09T05:59:35.210Z,72.70
2018-08-09T06:02:03.481Z,72.70
2018-08-09T06:04:31.758Z,72.80
2018-08-09T06:07:00.016Z,72.80
2018-08-09T06:09:28.215Z,72.70
2018-08-09T06:11:56.443Z,72.60
2018-08-09T06:14:24.862Z,72.30
2018-08-09T06:16:53.094Z,72.10
2018-08-09T06:19:21.337Z,71.80
2018-08-09T06:21:49.624Z,71.70
2018-08-09T06:24:17.850Z,71.50
2018-08-09T06:26:46.119Z,71.40
2018-08-09T06:29:14.353Z,71.50
2018-08-09T06:31:42.600Z,71.20
2018-08-09T06:34:10.863Z,71.00
2018-08-09T06:36:39.087Z,71.40
2018-08-09T06:39:07.979Z,70.10
2018-08-09T06:41:36.615Z,69.80
2018-08-09T06:44:05.027Z,69.40
2018-08-09T06:46:33.307Z,68.80
2018-08-09T06:49:01.584Z,68.10
2018-08-09T06:51:29.799Z,67.60
2018-08-09T06:53:58.057Z,67.10
2018-08-09T06:56:26.295Z,66.90
2018-08-09T06:58:54.631Z,66.90
2018-08-09T07:01:22.910Z,66.70
2018-08-09T07:03:51.153Z,66.00
2018-08-09T07:06:19.812Z,65.60
2018-08-09T07:08:48.078Z,65.50
2018-08-09T07:11:16.299Z,65.30
2018-08-09T07:13:44.558Z,65.20
2018-08-09T07:16:12.836Z,65.30
2018-08-09T07:18:43.893Z,65.00
2018-08-09T07:21:12.170Z,64.60
2018-08-09T07:23:40.414Z,64.70
2018-08-09T07:26:08.699Z,64.70
2018-08-09T07:28:36.907Z,64.60
2018-08-09T07:31:05.143Z,64.60
2018-08-09T07:33:33.424Z,64.40
2018-08-09T07:36:01.735Z,64.40
2018-08-09T07:38:30.070Z,64.10
2018-08-09T07:40:58.314Z,63.90
2018-08-09T07:43:26.770Z,63.40
2018-08-09T07:45:55.047Z,63.10
2018-08-09T07:48:23.275Z,62.50
2018-08-09T07:50:51.535Z,62.50
2018-08-09T07:53:19.750Z,60.80
2018-08-09T07:55:47.981Z,60.00
2018-08-09T07:58:16.229Z,59.00
2018-08-09T08:00:44.466Z,57.60
2018-08-09T08:03:12.723Z,57.50
2018-08-09T08:05:40.973Z,56.90
2018-08-09T08:08:09.142Z,55.80
2018-08-09T08:10:37.405Z,55.00
2018-08-09T08:13:05.615Z,54.00
2018-08-09T08:15:33.805Z,53.00
2018-08-09T08:18:02.024Z,53.00
2018-08-09T08:20:30.347Z,52.60
2018-08-09T08:22:58.614Z,51.00
2018-08-09T08:25:26.855Z,49.80
2018-08-09T08:27:55.086Z,49.00
2018-08-09T08:30:23.335Z,49.00
2018-08-09T08:32:51.550Z,48.90
2018-08-09T08:35:19.872Z,48.60
2018-08-09T08:37:48.114Z,48.30
2018-08-09T08:40:16.347Z,48.00
2018-08-09T08:42:44.599Z,47.30
2018-08-09T08:45:13.955Z,47.10
2018-08-09T08:47:42.850Z,46.90
2018-08-09T08:50:11.631Z,47.00
2018-08-09T08:52:39.851Z,46.70
2018-08-09T08:55:09.380Z,46.60
2018-08-09T08:57:37.612Z,46.70
2018-08-09T09:00:07.620Z,46.60
2018-08-09T09:02:36.189Z,46.50
2018-08-09T09:05:06.063Z,46.50
2018-08-09T09:07:34.235Z,46.10
2018-08-09T09:10:02.488Z,46.10
2018-08-09T09:12:30.736Z,46.20
2018-08-09T09:14:58.967Z,46.20
2018-08-09T09:17:27.195Z,46.20
2018-08-09T09:19:55.455Z,46.50
2018-08-09T09:22:24.544Z,46.40
2018-08-09T09:24:52.810Z,47.30
2018-08-09T09:27:21.059Z,46.90
2018-08-09T09:29:49.288Z,47.10
2018-08-09T09:32:17.491Z,47.20
2018-08-09T09:34:45.847Z,47.20
2018-08-09T09:37:14.115Z,47.50
2018-08-09T09:39:42.404Z,47.90
2018-08-09T09:42:10.635Z,48.00
2018-08-09T09:44:38.883Z,48.60
2018-08-09T09:47:07.119Z,49.60
2018-08-09T09:49:35.338Z,50.40
2018-08-09T09:52:03.570Z,52.10
2018-08-09T09:54:31.863Z,54.10
2018-08-09T09:57:00.193Z,56.90
2018-08-09T09:59:28.892Z,58.10
2018-08-09T10:01:57.198Z,60.00
2018-08-09T10:04:25.599Z,62.80
2018-08-09T10:06:53.987Z,64.70
2018-08-09T10:09:22.890Z,67.00
2018-08-09T10:11:51.220Z,69.90
2018-08-09T10:14:20.684Z,71.80
2018-08-09T10:16:51.206Z,73.60
2018-08-09T10:19:19.458Z,74.40
2018-08-09T10:21:47.705Z,75.60
2018-08-09T10:24:16.101Z,75.00
2018-08-09T10:26:44.360Z,74.60
2018-08-09T10:29:12.653Z,75.40
2018-08-09T10:31:40.856Z,75.70
2018-08-09T10:34:09.050Z,76.10
2018-08-09T10:36:38.126Z,75.90
2018-08-09T10:39:09.496Z,75.80
2018-08-09T10:41:37.844Z,75.90
2018-08-09T10:44:06.328Z,75.70
2018-08-09T10:46:34.925Z,75.80
2018-08-09T10:49:03.497Z,75.50
2018-08-09T10:51:32.214Z,74.20
2018-08-09T10:54:00.924Z,73.20
2018-08-09T10:56:29.664Z,73.30
2018-08-09T10:58:58.415Z,73.10
2018-08-09T11:01:27.324Z,72.20
2018-08-09T11:03:56.076Z,70.90
2018-08-09T11:06:24.555Z,71.00
2018-08-09T11:08:53.390Z,69.90
2018-08-09T11:11:21.944Z,69.90
2018-08-09T11:13:50.735Z,68.90
2018-08-09T11:16:19.147Z,68.80
2018-08-09T11:18:47.725Z,68.90
2018-08-09T11:21:16.515Z,68.90
2018-08-09T11:23:45.327Z,69.30
2018-08-09T11:26:13.643Z,68.60
2018-08-09T11:28:42.740Z,68.20
2018-08-09T11:31:11.219Z,68.40
2018-08-09T11:33:39.845Z,67.60
2018-08-09T11:36:08.174Z,67.70
2018-08-09T11:38:36.774Z,67.60
2018-08-09T11:41:05.095Z,67.80
2018-08-09T11:43:33.711Z,68.40
2018-08-09T11:46:02.119Z,68.40
2018-08-09T11:48:31.914Z,68.70
2018-08-09T11:51:00.358Z,69.20
2018-08-09T11:53:28.998Z,69.90
2018-08-09T11:55:57.618Z,70.80
2018-08-09T11:58:26.029Z,71.00
2018-08-09T12:00:54.277Z,71.40
2018-08-09T12:03:22.584Z,72.10
2018-08-09T12:08:25.377Z,72.80
2018-08-09T12:10:53.929Z,73.40
2018-08-09T12:13:22.403Z,74.00
2018-08-09T12:15:51.028Z,74.70
2018-08-09T12:18:19.490Z,75.30
2018-08-09T12:20:48.476Z,75.70
2018-08-09T12:23:16.792Z,76.60
2018-08-09T12:25:45.085Z,76.90
2018-08-09T12:28:13.893Z,77.10
2018-08-09T12:30:42.139Z,76.80
2018-08-09T12:33:10.456Z,76.90
2018-08-09T12:35:38.650Z,77.40
2018-08-09T12:38:07.803Z,77.70
2018-08-09T12:40:39.257Z,77.30
2018-08-09T12:43:08.112Z,81.30
2018-08-09T12:45:36.496Z,84.50
2018-08-09T12:48:05.690Z,88.10
2018-08-09T12:50:34.742Z,90.10
2018-08-09T12:53:03.729Z,90.20
2018-08-09T12:55:31.939Z,90.60
2018-08-09T12:58:00.265Z,90.80
2018-08-09T13:00:28.670Z,90.70
2018-08-09T13:02:56.867Z,91.00
2018-08-09T13:05:25.896Z,91.40
2018-08-09T13:07:54.239Z,91.20
2018-08-09T13:10:22.957Z,91.10
2018-08-09T13:12:56.399Z,91.40
2018-08-09T13:15:26.898Z,91.60
2018-08-09T13:17:55.511Z,91.90
2018-08-09T13:20:24.175Z,91.90
2018-08-09T13:22:53.505Z,91.70
2018-08-09T13:25:21.797Z,91.90
2018-08-09T13:27:50.530Z,92.00
2018-08-09T13:30:19.757Z,91.90
2018-08-09T13:32:48.354Z,92.10
2018-08-09T13:35:16.630Z,92.20
2018-08-09T13:37:44.875Z,92.30
2018-08-09T13:40:13.133Z,92.30
2018-08-09T13:42:42.077Z,92.60
2018-08-09T13:45:14.154Z,92.90
2018-08-09T13:47:43.081Z,93.20
2018-08-09T13:50:12.756Z,93.00
2018-08-09T13:52:42.735Z,92.70
2018-08-09T13:55:13.327Z,92.40
2018-08-09T13:57:41.888Z,92.20
2018-08-09T14:00:12.706Z,92.50
2018-08-09T14:02:44.394Z,93.00
2018-08-09T14:05:13.431Z,93.00
2018-08-09T14:07:43.594Z,91.80
2018-08-09T14:10:12.453Z,91.20
2018-08-09T14:12:42.947Z,88.70
2018-08-09T14:15:13.817Z,79.30
2018-08-09T14:17:42.932Z,71.00
2018-08-09T14:20:14.235Z,65.10
2018-08-09T14:22:42.924Z,62.80
2018-08-09T14:25:11.723Z,63.60
2018-08-09T14:27:40.775Z,65.40
2018-08-09T14:30:10.655Z,66.90
2018-08-09T14:32:38.894Z,68.40
2018-08-09T14:35:09.331Z,70.60
2018-08-09T14:37:45.209Z,73.20
2018-08-09T14:40:14.186Z,76.10
2018-08-09T14:42:42.426Z,78.30
2018-08-09T14:45:13.305Z,79.40
2018-08-09T14:47:41.532Z,81.50
2018-08-09T14:50:09.816Z,82.30
2018-08-09T14:52:38.097Z,82.10
2018-08-09T14:55:07.869Z,83.50
2018-08-09T14:57:36.226Z,85.70
2018-08-09T15:00:08.909Z,86.30
2018-08-09T15:02:37.143Z,86.30
2018-08-09T15:05:05.352Z,87.00
2018-08-09T15:07:33.579Z,87.50
2018-08-09T15:10:01.796Z,88.60
2018-08-09T15:12:30.098Z,90.00
2018-08-09T15:14:58.379Z,90.60
2018-08-09T15:17:26.773Z,90.40
2018-08-09T15:19:55.011Z,90.60
2018-08-09T15:22:23.730Z,90.80
2018-08-09T15:24:51.987Z,91.00
2018-08-09T15:27:20.295Z,90.60
2018-08-09T15:29:48.599Z,90.50
2018-08-09T15:32:16.839Z,89.70
2018-08-09T15:34:45.218Z,88.00
2018-08-09T15:37:13.490Z,86.30
2018-08-09T15:39:41.703Z,82.80
2018-08-09T15:42:10.072Z,81.40
2018-08-09T15:44:38.294Z,80.40
2018-08-09T15:47:06.794Z,78.90
2018-08-09T15:49:34.980Z,77.30
2018-08-09T15:52:03.291Z,77.40
2018-08-09T15:54:31.590Z,79.20
2018-08-09T15:56:59.828Z,79.50
2018-08-09T15:59:28.072Z,79.80
2018-08-09T16:01:56.341Z,80.30
2018-08-09T16:04:24.791Z,81.00
2018-08-09T16:06:53.097Z,81.00
2018-08-09T16:09:21.347Z,81.40
2018-08-09T16:11:51.431Z,81.50
2018-08-09T16:14:20.928Z,82.20
2018-08-09T16:16:53.930Z,82.60
2018-08-09T16:19:23.336Z,82.90
2018-08-09T16:21:51.897Z,82.90
2018-08-09T16:24:20.148Z,83.00
2018-08-09T16:26:48.396Z,82.40
2018-08-09T16:29:16.650Z,82.10
2018-08-09T16:31:44.864Z,81.90
2018-08-09T16:34:13.318Z,81.50
2018-08-09T16:36:41.573Z,81.70
2018-08-09T16:39:11.840Z,81.20
2018-08-09T16:41:40.097Z,81.20
2018-08-09T16:44:08.733Z,80.70
2018-08-09T16:46:37.113Z,80.00
2018-08-09T16:49:05.724Z,79.60
2018-08-09T16:51:33.999Z,78.40
2018-08-09T16:54:02.242Z,77.30
2018-08-09T16:56:30.500Z,76.80
2018-08-09T16:58:58.751Z,76.20
2018-08-09T17:01:26.995Z,75.90
2018-08-09T17:03:55.542Z,75.40
2018-08-09T17:06:23.967Z,75.50
2018-08-09T17:08:52.271Z,75.70
2018-08-09T17:11:20.995Z,76.30
2018-08-09T17:13:50.738Z,76.30
2018-08-09T17:16:19.153Z,76.40
2018-08-09T17:18:47.582Z,76.30
2018-08-09T17:21:15.894Z,76.60
2018-08-09T17:23:44.399Z,76.60
2018-08-09T17:26:13.185Z,76.10
2018-08-09T17:28:42.287Z,75.90
2018-08-09T17:31:10.855Z,75.60
2018-08-09T17:33:39.708Z,75.60
2018-08-09T17:36:08.149Z,75.10
2018-08-09T17:38:36.463Z,74.90
2018-08-09T17:41:04.814Z,75.10
2018-08-09T17:43:33.161Z,75.40
2018-08-09T17:46:04.499Z,76.00
2018-08-09T17:48:32.946Z,76.40
2018-08-09T17:51:01.199Z,77.00
2018-08-09T17:53:29.442Z,77.20
2018-08-09T17:55:57.662Z,77.20
2018-08-09T17:58:26.906Z,77.00
2018-08-09T18:00:56.046Z,77.50
2018-08-09T18:03:24.591Z,77.50
2018-08-09T18:05:56.825Z,77.50
2018-08-09T18:08:25.179Z,77.60
2018-08-09T18:10:53.447Z,78.10
2018-08-09T18:13:21.690Z,78.50
2018-08-09T18:15:49.916Z,78.90
2018-08-09T18:18:24.683Z,79.00
2018-08-09T18:20:52.954Z,78.80
2018-08-09T18:23:21.161Z,78.10
2018-08-09T18:25:49.387Z,77.90
2018-08-09T18:28:17.631Z,77.90
2018-08-09T18:30:47.583Z,77.30
2018-08-09T18:33:20.027Z,73.70
2018-08-09T18:35:48.555Z,69.00
2018-08-09T18:38:16.901Z,67.50
2018-08-09T18:40:45.795Z,66.30
2018-08-09T18:43:14.010Z,66.90
2018-08-09T18:45:42.270Z,67.40
2018-08-09T18:48:10.932Z,67.30
2018-08-09T18:50:39.766Z,67.40
2018-08-09T18:53:08.403Z,67.70
2018-08-09T18:55:37.383Z,68.00
2018-08-09T18:58:06.432Z,68.40
2018-08-09T19:00:35.219Z,68.80
2018-08-09T19:03:04.463Z,69.20
2018-08-09T19:05:33.584Z,69.60
2018-08-09T19:08:02.635Z,70.30
2018-08-09T19:10:31.631Z,70.80
2018-08-09T19:13:00.105Z,71.40
2018-08-09T19:15:28.982Z,71.80
2018-08-09T19:17:58.014Z,72.20
2018-08-09T19:20:29.746Z,72.50
2018-08-09T19:22:58.922Z,72.90
2018-08-09T19:25:27.972Z,73.20
2018-08-09T19:27:56.591Z,73.50
2018-08-09T19:30:26.730Z,73.80
2018-08-09T19:32:55.183Z,74.40
2018-08-09T19:35:24.757Z,75.00
2018-08-09T19:37:53.383Z,75.10
2018-08-09T19:40:24.841Z,75.20
2018-08-09T19:42:53.794Z,75.60
2018-08-09T19:45:22.478Z,75.80
2018-08-09T19:47:52.111Z,76.20
2018-08-09T19:50:22.444Z,76.40
2018-08-09T19:52:51.567Z,76.90
2018-08-09T19:55:22.655Z,77.00
2018-08-09T19:57:51.657Z,77.40
2018-08-09T20:00:23.050Z,77.80
2018-08-09T20:02:52.514Z,78.10
2018-08-09T20:05:21.274Z,78.30
2018-08-09T20:07:49.914Z,78.60
2018-08-09T20:10:18.546Z,79.10
2018-08-09T20:12:47.816Z,79.40
2018-08-09T20:15:19.642Z,79.80
2018-08-09T20:17:48.702Z,79.90
2018-08-09T20:20:19.490Z,80.20
2018-08-09T20:22:48.677Z,80.40
2018-08-09T20:25:17.629Z,80.70
2018-08-09T20:27:47.321Z,81.10
2018-08-09T20:30:16.746Z,82.00
2018-08-09T20:32:46.359Z,82.80
2018-08-09T20:35:16.845Z,83.00
2018-08-09T20:37:46.435Z,83.40
2018-08-09T20:40:15.191Z,83.20
2018-08-09T20:42:44.059Z,84.10
2018-08-09T20:45:13.661Z,86.00
2018-08-09T20:47:42.732Z,87.80
2018-08-09T20:50:14.847Z,89.90
2018-08-09T20:52:45.212Z,90.70
2018-08-09T20:55:14.289Z,91.50
2018-08-09T20:57:43.872Z,92.00
2018-08-09T21:00:15.600Z,92.60
2018-08-09T21:02:45.703Z,93.10
2018-08-09T21:05:20.382Z,93.50
2018-08-09T21:07:49.599Z,94.10
2018-08-09T21:10:18.095Z,94.50
2018-08-09T21:12:47.704Z,94.90
2018-08-09T21:15:17.393Z,95.10
2018-08-09T21:17:46.693Z,95.20
2018-08-09T21:20:15.851Z,95.50
2018-08-09T21:22:45.463Z,96.00
2018-08-09T21:25:13.850Z,96.20
2018-08-09T21:27:42.920Z,96.00
2018-08-09T21:30:14.207Z,96.00
2018-08-09T21:32:43.056Z,96.10
2018-08-09T21:35:11.883Z,96.20
2018-08-09T21:37:41.401Z,96.30
2018-08-09T21:40:11.304Z,96.70
2018-08-09T21:42:40.309Z,97.00
2018-08-09T21:45:14.110Z,97.20
2018-08-09T21:47:42.410Z,97.40
2018-08-09T21:50:13.843Z,97.70
2018-08-09T21:52:42.920Z,97.40
2018-08-09T21:55:12.203Z,98.00
2018-08-09T21:57:40.715Z,97.90
2018-08-09T22:00:22.978Z,98.40
2018-08-09T22:02:51.264Z,98.70
2018-08-09T22:05:24.833Z,99.10
2018-08-09T22:07:58.469Z,99.10
2018-08-09T22:10:31.991Z,99.10
2018-08-09T22:13:05.496Z,99.30
2018-08-09T22:15:39.171Z,99.20
2018-08-09T22:18:12.823Z,99.20
2018-08-09T22:20:46.308Z,99.10
2018-08-09T22:23:14.526Z,99.00
2018-08-09T22:25:42.735Z,99.20
2018-08-09T22:28:10.991Z,99.90
2018-08-09T22:30:39.203Z,99.90
2018-08-09T22:33:07.407Z,99.90
2018-08-09T22:35:35.670Z,99.90
2018-08-09T22:38:03.886Z,99.90
2018-08-09T22:40:32.104Z,99.90
2018-08-09T22:43:00.388Z,99.90
2018-08-09T22:45:28.590Z,99.90
2018-08-09T22:47:56.810Z,99.90
2018-08-09T22:50:25.043Z,99.90
2018-08-09T22:52:53.277Z,99.90
2018-08-09T22:55:21.603Z,99.50
2018-08-09T22:57:49.835Z,99.60
2018-08-09T23:00:22.522Z,99.90
2018-08-09T23:02:51.200Z,99.70
2018-08-09T23:05:19.932Z,99.20
2018-08-09T23:07:48.179Z,98.80
2018-08-09T23:10:16.586Z,98.40
2018-08-09T23:12:44.890Z,98.00
2018-08-09T23:15:13.441Z,97.60
2018-08-09T23:17:41.682Z,97.00
2018-08-09T23:20:10.130Z,96.80
2018-08-09T23:22:38.363Z,96.50
2018-08-09T23:25:11.402Z,95.90
2018-08-09T23:27:39.640Z,96.10
2018-08-09T23:30:09.346Z,96.20
2018-08-09T23:32:37.902Z,96.30
2018-08-09T23:35:07.816Z,96.40
2018-08-09T23:37:36.151Z,96.10
2018-08-09T23:40:05.673Z,95.80
2018-08-09T23:42:34.630Z,95.70
2018-08-09T23:45:03.174Z,95.90
2018-08-09T23:47:31.397Z,96.00
2018-08-09T23:49:59.627Z,96.10
2018-08-09T23:52:27.908Z,96.40
2018-08-09T23:54:56.124Z,96.60
2018-08-09T23:57:24.430Z,96.60
2018-08-09T23:59:52.614Z,96.30
